createdAt,value
2023-04-26T00:01:05.773Z,101788.28
2023-04-26T00:03:33.790Z,101788.50
2023-04-26T00:06:04.007Z,101786.41
2023-04-26T00:08:31.886Z,101783.09
2023-04-26T00:10:59.655Z,101784.94
2023-04-26T00:13:27.652Z,101783.59
2023-04-26T00:15:55.741Z,101787.69
2023-04-26T00:18:25.075Z,101781.69
2023-04-26T00:20:52.887Z,101783.94
2023-04-26T00:23:20.789Z,101786.09
2023-04-26T00:25:48.592Z,101781.69
2023-04-26T00:28:16.763Z,101779.97
2023-04-26T00:30:47.779Z,101789.81
2023-04-26T00:33:16.068Z,101782.69
2023-04-26T00:35:45.371Z,101791.28
2023-04-26T00:38:13.298Z,101785.00
2023-04-26T00:40:41.294Z,101784.84
2023-04-26T00:43:09.820Z,101788.28
2023-04-26T00:45:38.155Z,101784.06
2023-04-26T00:48:06.551Z,101788.66
2023-04-26T00:50:34.999Z,101782.78
2023-04-26T00:53:05.257Z,101778.25
2023-04-26T00:55:33.244Z,101786.22
2023-04-26T00:58:01.916Z,101773.63
2023-04-26T01:00:29.743Z,101773.53
2023-04-26T01:02:58.448Z,101773.78
2023-04-26T01:05:26.819Z,101776.03
2023-04-26T01:07:54.789Z,101777.50
2023-04-26T01:10:24.869Z,101769.50
2023-04-26T01:12:52.830Z,101766.66
2023-04-26T01:15:21.093Z,101769.13
2023-04-26T01:17:50.852Z,101782.06
2023-04-26T01:20:19.962Z,101771.72
2023-04-26T01:22:49.076Z,101783.31
2023-04-26T01:25:17.426Z,101783.09
2023-04-26T01:27:45.167Z,101782.50
2023-04-26T01:30:13.848Z,101780.69
2023-04-26T01:32:41.832Z,101789.94
2023-04-26T01:35:10.159Z,101795.13
2023-04-26T01:37:37.978Z,101791.41
2023-04-26T01:40:09.804Z,101791.69
2023-04-26T01:42:38.355Z,101779.84
2023-04-26T01:45:07.591Z,101793.63
2023-04-26T01:47:56.045Z,101790.44
2023-04-26T01:50:24.625Z,101789.22
2023-04-26T01:52:52.582Z,101784.03
2023-04-26T01:55:21.776Z,101782.56
2023-04-26T01:57:49.658Z,101782.81
2023-04-26T02:00:17.922Z,101789.94
2023-04-26T02:02:50.164Z,101790.94
2023-04-26T02:05:18.108Z,101788.34
2023-04-26T02:07:46.066Z,101784.41
2023-04-26T02:10:14.353Z,101783.66
2023-04-26T02:12:43.694Z,101782.31
2023-04-26T02:15:12.516Z,101775.41
2023-04-26T02:17:40.394Z,101773.22
2023-04-26T02:20:10.409Z,101772.84
2023-04-26T02:22:38.280Z,101778.88
2023-04-26T02:25:08.372Z,101776.03
2023-04-26T02:27:36.732Z,101776.66
2023-04-26T02:30:07.799Z,101771.47
2023-04-26T02:32:36.421Z,101764.69
2023-04-26T02:35:05.275Z,101777.13
2023-04-26T02:37:33.990Z,101778.59
2023-04-26T02:40:01.909Z,101778.75
2023-04-26T02:42:30.176Z,101775.88
2023-04-26T02:44:58.134Z,101778.13
2023-04-26T02:47:27.391Z,101783.06
2023-04-26T02:49:55.456Z,101777.88
2023-04-26T02:52:23.315Z,101776.41
2023-04-26T02:54:51.181Z,101771.84
2023-04-26T02:57:18.969Z,101774.44
2023-04-26T02:59:47.107Z,101770.56
2023-04-26T03:02:14.965Z,101774.22
2023-04-26T03:04:44.216Z,101775.84
2023-04-26T03:07:12.012Z,101771.53
2023-04-26T03:09:39.872Z,101766.97
2023-04-26T03:12:08.271Z,101776.84
2023-04-26T03:14:37.376Z,101776.56
2023-04-26T03:17:05.225Z,101771.91
2023-04-26T03:19:34.216Z,101782.25
2023-04-26T03:22:05.864Z,101775.78
2023-04-26T03:24:34.022Z,101778.25
2023-04-26T03:27:02.038Z,101772.31
2023-04-26T03:29:29.807Z,101774.41
2023-04-26T03:31:58.279Z,101768.63
2023-04-26T03:34:27.356Z,101763.81
2023-04-26T03:36:55.870Z,101773.66
2023-04-26T03:39:25.061Z,101777.97
2023-04-26T03:41:53.665Z,101764.56
2023-04-26T03:44:21.567Z,101763.09
2023-04-26T03:46:49.434Z,101757.94
2023-04-26T03:49:17.262Z,101755.22
2023-04-26T03:51:45.868Z,101757.91
2023-04-26T03:54:13.722Z,101763.28
2023-04-26T03:56:42.982Z,101768.13
2023-04-26T03:59:10.993Z,101768.53
2023-04-26T04:01:39.523Z,101794.50
2023-04-26T04:04:08.126Z,101799.75
2023-04-26T04:06:38.378Z,101798.31
2023-04-26T04:09:06.687Z,101803.31
2023-04-26T04:11:35.130Z,101795.19
2023-04-26T04:14:04.711Z,101802.53
2023-04-26T04:16:32.836Z,101801.91
2023-04-26T04:19:00.589Z,101801.72
2023-04-26T04:21:28.818Z,101796.78
2023-04-26T04:23:57.871Z,101801.94
2023-04-26T04:26:28.097Z,101801.84
2023-04-26T04:28:56.578Z,101793.75
2023-04-26T04:31:25.861Z,101792.09
2023-04-26T04:33:53.823Z,101779.38
2023-04-26T04:36:21.642Z,101777.31
2023-04-26T04:38:49.490Z,101779.16
2023-04-26T04:41:20.297Z,101774.16
2023-04-26T04:43:48.021Z,101773.59
2023-04-26T04:46:15.858Z,101783.34
2023-04-26T04:48:45.486Z,101787.78
2023-04-26T04:51:13.297Z,101783.88
2023-04-26T04:53:41.093Z,101791.75
2023-04-26T04:56:09.238Z,101791.91
2023-04-26T04:58:37.626Z,101797.47
2023-04-26T05:01:06.389Z,101795.88
2023-04-26T05:03:48.282Z,101789.53
2023-04-26T05:06:16.139Z,101781.19
2023-04-26T05:08:43.906Z,101786.25
2023-04-26T05:11:11.688Z,101782.69
2023-04-26T05:13:39.604Z,101787.38
2023-04-26T05:16:07.813Z,101788.22
2023-04-26T05:18:35.950Z,101793.53
2023-04-26T05:21:05.577Z,101794.47
2023-04-26T05:23:34.337Z,101791.41
2023-04-26T05:26:02.823Z,101789.31
2023-04-26T05:28:51.073Z,101803.31
2023-04-26T05:31:26.363Z,101796.03
2023-04-26T05:34:03.942Z,101801.44
2023-04-26T05:36:37.993Z,101798.78
2023-04-26T05:39:06.897Z,101813.25
2023-04-26T05:41:35.322Z,101813.66
2023-04-26T05:44:03.530Z,101808.91
2023-04-26T05:46:31.498Z,101814.09
2023-04-26T05:48:59.327Z,101819.81
2023-04-26T05:51:29.085Z,101818.19
2023-04-26T05:53:58.328Z,101815.06
2023-04-26T05:56:27.020Z,101827.94
2023-04-26T05:58:54.948Z,101819.00
2023-04-26T06:01:22.863Z,101829.38
2023-04-26T06:03:51.907Z,101830.66
2023-04-26T06:06:24.024Z,101821.59
2023-04-26T06:08:52.866Z,101823.31
2023-04-26T06:11:22.384Z,101817.94
2023-04-26T06:13:50.770Z,101814.16
2023-04-26T06:16:19.238Z,101813.38
2023-04-26T06:18:49.196Z,101812.25
2023-04-26T06:21:17.059Z,101813.50
2023-04-26T06:23:45.026Z,101816.31
2023-04-26T06:26:12.991Z,101813.88
2023-04-26T06:28:42.487Z,101814.09
2023-04-26T06:31:10.804Z,101809.19
2023-04-26T06:33:39.131Z,101812.75
2023-04-26T06:36:08.127Z,101821.25
2023-04-26T06:38:36.254Z,101820.03
2023-04-26T06:41:04.940Z,101822.59
2023-04-26T06:43:33.588Z,101821.75
2023-04-26T06:46:08.651Z,101826.81
2023-04-26T06:48:36.812Z,101825.81
2023-04-26T06:51:07.119Z,101833.09
2023-04-26T06:53:35.210Z,101833.81
2023-04-26T06:56:03.137Z,101844.19
2023-04-26T06:58:31.052Z,101850.59
2023-04-26T07:00:59.490Z,101847.25
2023-04-26T07:03:29.395Z,101852.41
2023-04-26T07:05:57.631Z,101833.56
2023-04-26T07:08:26.020Z,101835.66
2023-04-26T07:10:55.584Z,101832.97
2023-04-26T07:13:23.660Z,101834.78
2023-04-26T07:15:52.267Z,101833.47
2023-04-26T07:18:20.425Z,101834.81
2023-04-26T07:20:49.808Z,101838.63
2023-04-26T07:23:18.004Z,101832.69
2023-04-26T07:25:46.050Z,101840.97
2023-04-26T07:28:14.619Z,101834.78
2023-04-26T07:30:43.161Z,101830.59
2023-04-26T07:33:11.230Z,101830.72
2023-04-26T07:35:39.547Z,101828.63
2023-04-26T07:38:09.142Z,101835.25
2023-04-26T07:40:37.820Z,101832.09
2023-04-26T07:43:05.701Z,101834.69
2023-04-26T07:45:34.064Z,101840.06
2023-04-26T07:48:03.465Z,101830.09
2023-04-26T07:50:31.729Z,101841.81
2023-04-26T07:52:59.477Z,101843.25
2023-04-26T07:55:29.506Z,101838.69
2023-04-26T07:57:57.910Z,101839.44
2023-04-26T08:00:25.870Z,101833.94
2023-04-26T08:02:54.180Z,101846.78
2023-04-26T08:05:23.597Z,101837.34
2023-04-26T08:07:53.396Z,101843.28
2023-04-26T08:10:22.352Z,101848.06
2023-04-26T08:12:52.428Z,101850.13
2023-04-26T08:15:21.605Z,101847.13
2023-04-26T08:17:53.530Z,101855.22
2023-04-26T08:20:22.826Z,101852.09
2023-04-26T08:22:51.932Z,101858.25
2023-04-26T08:25:20.961Z,101860.28
2023-04-26T08:27:49.302Z,101862.59
2023-04-26T08:30:19.192Z,101861.50
2023-04-26T08:32:48.019Z,101861.25
2023-04-26T08:35:17.470Z,101857.25
2023-04-26T08:37:46.096Z,101855.13
2023-04-26T08:40:14.519Z,101864.25
2023-04-26T08:42:44.601Z,101861.16
2023-04-26T08:45:12.948Z,101865.47
2023-04-26T08:47:46.738Z,101876.41
2023-04-26T08:50:17.264Z,101873.31
2023-04-26T08:52:46.982Z,101875.59
2023-04-26T08:55:17.842Z,101879.53
2023-04-26T08:57:48.953Z,101880.03
2023-04-26T09:00:19.934Z,101882.75
2023-04-26T09:02:52.272Z,101875.59
2023-04-26T09:05:24.552Z,101871.47
2023-04-26T09:07:58.420Z,101873.34
2023-04-26T09:10:27.011Z,101870.41
2023-04-26T09:12:56.991Z,101874.72
2023-04-26T09:15:27.662Z,101880.34
2023-04-26T09:17:57.992Z,101885.69
2023-04-26T09:20:28.193Z,101877.34
2023-04-26T09:23:06.006Z,101883.84
2023-04-26T09:25:35.484Z,101878.69
2023-04-26T09:28:05.196Z,101878.31
2023-04-26T09:30:40.488Z,101881.66
2023-04-26T09:33:10.389Z,101880.00
2023-04-26T09:35:40.215Z,101881.50
2023-04-26T09:38:13.303Z,101886.53
2023-04-26T09:40:43.812Z,101886.50
2023-04-26T09:43:13.340Z,101883.00
2023-04-26T09:45:49.981Z,101878.63
2023-04-26T09:48:22.951Z,101883.56
2023-04-26T09:50:54.473Z,101872.69
2023-04-26T09:53:32.438Z,101869.59
2023-04-26T09:56:09.692Z,101880.88
2023-04-26T09:58:39.536Z,101880.28
2023-04-26T10:01:10.314Z,101874.94
2023-04-26T10:03:40.974Z,101885.16
2023-04-26T10:06:10.299Z,101884.28
2023-04-26T10:08:39.388Z,101881.88
2023-04-26T10:11:10.800Z,101881.75
2023-04-26T10:13:41.000Z,101878.16
2023-04-26T10:16:11.040Z,101878.41
2023-04-26T10:18:40.972Z,101879.94
2023-04-26T10:21:13.818Z,101882.53
2023-04-26T10:23:42.356Z,101875.84
2023-04-26T10:26:51.693Z,101875.03
2023-04-26T10:29:19.964Z,101872.13
2023-04-26T10:32:07.505Z,101875.13
2023-04-26T10:34:38.219Z,101873.94
2023-04-26T10:37:11.265Z,101878.47
2023-04-26T10:39:39.980Z,101875.31
2023-04-26T10:42:30.360Z,101873.63
2023-04-26T10:44:59.121Z,101888.47
2023-04-26T10:47:30.456Z,101889.28
2023-04-26T10:50:09.263Z,101873.72
2023-04-26T10:52:37.950Z,101893.75
2023-04-26T10:55:07.859Z,101884.59
2023-04-26T10:57:52.655Z,101902.63
2023-04-26T11:00:32.647Z,101892.63
2023-04-26T11:03:13.045Z,101892.63
2023-04-26T11:05:55.712Z,101893.09
2023-04-26T11:08:28.065Z,101888.31
2023-04-26T11:11:06.582Z,101888.25
2023-04-26T11:13:35.233Z,101890.56
2023-04-26T11:16:05.049Z,101896.78
2023-04-26T11:18:34.084Z,101882.84
2023-04-26T11:21:04.760Z,101883.28
2023-04-26T11:23:32.925Z,101878.44
2023-04-26T11:26:02.962Z,101877.13
2023-04-26T11:28:33.874Z,101869.84
2023-04-26T11:31:03.018Z,101865.75
2023-04-26T11:33:34.490Z,101862.56
2023-04-26T11:36:04.588Z,101859.69
2023-04-26T11:38:32.403Z,101870.66
2023-04-26T11:41:01.544Z,101864.19
2023-04-26T11:43:36.547Z,101871.00
2023-04-26T11:46:05.048Z,101871.13
2023-04-26T11:48:34.747Z,101869.72
2023-04-26T11:51:05.375Z,101866.56
2023-04-26T11:53:37.713Z,101874.19
2023-04-26T11:56:07.498Z,101874.88
2023-04-26T11:58:35.817Z,101875.91
2023-04-26T12:01:04.082Z,101853.06
2023-04-26T12:03:33.615Z,101870.88
2023-04-26T12:06:02.299Z,101883.81
2023-04-26T12:08:33.547Z,101875.34
2023-04-26T12:11:03.428Z,101884.78
2023-04-26T12:13:32.929Z,101878.06
2023-04-26T12:16:01.113Z,101883.50
2023-04-26T12:18:33.820Z,101881.19
2023-04-26T12:21:02.374Z,101874.59
2023-04-26T12:23:40.839Z,101881.63
2023-04-26T12:26:11.201Z,101872.16
2023-04-26T12:28:39.783Z,101877.47
2023-04-26T12:31:08.404Z,101885.34
2023-04-26T12:33:36.985Z,101891.09
2023-04-26T12:36:10.059Z,101893.84
2023-04-26T12:38:40.493Z,101897.44
2023-04-26T12:41:09.825Z,101896.69
2023-04-26T12:43:37.658Z,101897.56
2023-04-26T12:46:06.469Z,101890.09
2023-04-26T12:48:34.680Z,101890.50
2023-04-26T12:51:03.435Z,101897.41
2023-04-26T12:53:31.353Z,101898.78
2023-04-26T12:56:01.141Z,101903.25
2023-04-26T12:58:29.146Z,101907.19
2023-04-26T13:00:57.059Z,101898.91
2023-04-26T13:03:25.082Z,101894.47
2023-04-26T13:05:53.010Z,101902.50
2023-04-26T13:08:21.571Z,101888.63
2023-04-26T13:10:49.574Z,101901.78
2023-04-26T13:13:19.289Z,101899.19
2023-04-26T13:15:48.284Z,101901.06
2023-04-26T13:18:18.021Z,101898.25
2023-04-26T13:20:46.371Z,101894.97
2023-04-26T13:23:14.652Z,101901.72
2023-04-26T13:25:43.170Z,101890.97
2023-04-26T13:28:10.995Z,101897.69
2023-04-26T13:30:40.761Z,101902.72
2023-04-26T13:33:09.064Z,101896.44
2023-04-26T13:35:37.868Z,101896.41
2023-04-26T13:38:05.848Z,101901.75
2023-04-26T13:40:33.886Z,101902.88
2023-04-26T13:43:02.093Z,101914.22
2023-04-26T13:45:30.627Z,101913.06
2023-04-26T13:48:00.190Z,101913.47
2023-04-26T13:50:28.530Z,101905.75
2023-04-26T13:52:56.717Z,101905.28
2023-04-26T13:55:25.827Z,101917.16
2023-04-26T13:57:53.890Z,101932.41
2023-04-26T14:00:22.925Z,101937.28
2023-04-26T14:02:51.482Z,101927.28
2023-04-26T14:05:21.203Z,101924.41
2023-04-26T14:07:49.095Z,101934.47
2023-04-26T14:10:17.474Z,101930.47
2023-04-26T14:12:45.378Z,101938.81
2023-04-26T14:15:13.623Z,101934.97
2023-04-26T14:17:42.202Z,101936.81
2023-04-26T14:20:11.249Z,101939.06
2023-04-26T14:22:41.470Z,101940.09
2023-04-26T14:25:10.407Z,101930.41
2023-04-26T14:27:39.493Z,101935.50
2023-04-26T14:30:08.960Z,101937.06
2023-04-26T14:32:36.941Z,101954.19
2023-04-26T14:35:05.632Z,101941.88
2023-04-26T14:37:33.558Z,101936.59
2023-04-26T14:40:03.807Z,101938.31
2023-04-26T14:42:31.693Z,101945.19
2023-04-26T14:45:00.305Z,101940.09
2023-04-26T14:47:29.314Z,101949.16
2023-04-26T14:49:58.396Z,101938.09
2023-04-26T14:52:28.937Z,101938.25
2023-04-26T14:54:57.275Z,101946.47
2023-04-26T14:57:26.602Z,101936.81
2023-04-26T14:59:54.426Z,101962.25
2023-04-26T15:02:22.391Z,101951.00
2023-04-26T15:04:50.542Z,101956.25
2023-04-26T15:07:31.401Z,101950.53
2023-04-26T15:10:00.576Z,101951.47
2023-04-26T15:12:29.750Z,101952.06
2023-04-26T15:14:57.852Z,101950.47
2023-04-26T15:17:25.608Z,101956.25
2023-04-26T15:19:53.579Z,101945.38
2023-04-26T15:22:21.642Z,101947.00
2023-04-26T15:24:50.854Z,101942.75
2023-04-26T15:27:18.723Z,101936.72
2023-04-26T15:29:47.968Z,101942.72
2023-04-26T15:32:15.859Z,101936.78
2023-04-26T15:34:45.253Z,101934.56
2023-04-26T15:37:13.272Z,101933.47
2023-04-26T15:39:41.203Z,101938.50
2023-04-26T15:42:09.281Z,101945.25
2023-04-26T15:44:37.085Z,101934.47
2023-04-26T15:47:06.176Z,101922.34
2023-04-26T15:49:35.001Z,101935.03
2023-04-26T15:52:02.919Z,101935.50
2023-04-26T15:54:33.103Z,101933.09
2023-04-26T15:57:00.851Z,101945.19
2023-04-26T15:59:29.955Z,101943.09
2023-04-26T16:01:58.214Z,101944.69
2023-04-26T16:04:27.909Z,101941.63
2023-04-26T16:06:56.446Z,101946.31
2023-04-26T16:09:25.956Z,101948.81
2023-04-26T16:11:54.284Z,101942.13
2023-04-26T16:14:22.429Z,101945.72
2023-04-26T16:16:50.247Z,101943.59
2023-04-26T16:19:18.353Z,101948.31
2023-04-26T16:21:47.558Z,101942.56
2023-04-26T16:24:16.307Z,101941.56
2023-04-26T16:26:44.465Z,101947.44
2023-04-26T16:29:12.308Z,101940.88
2023-04-26T16:31:40.957Z,101942.47
2023-04-26T16:34:09.035Z,101949.50
2023-04-26T16:36:36.868Z,101938.03
2023-04-26T16:39:06.362Z,101942.03
2023-04-26T16:41:34.241Z,101942.75
2023-04-26T16:44:02.322Z,101943.00
2023-04-26T16:46:30.334Z,101944.13
2023-04-26T16:48:58.118Z,101941.31
2023-04-26T16:51:26.935Z,101947.06
2023-04-26T16:53:54.759Z,101945.16
2023-04-26T16:56:24.364Z,101941.59
2023-04-26T16:58:54.496Z,101943.72
2023-04-26T17:01:22.487Z,101944.13
2023-04-26T17:03:50.508Z,101941.31
2023-04-26T17:06:18.946Z,101945.91
2023-04-26T17:08:46.823Z,101951.66
2023-04-26T17:11:16.055Z,101948.88
2023-04-26T17:13:45.347Z,101954.25
2023-04-26T17:16:13.273Z,101950.19
2023-04-26T17:18:41.817Z,101957.94
2023-04-26T17:21:10.009Z,101952.91
2023-04-26T17:23:37.916Z,101941.72
2023-04-26T17:26:05.992Z,101949.25
2023-04-26T17:28:34.213Z,101950.31
2023-04-26T17:31:03.879Z,101953.50
2023-04-26T17:33:31.891Z,101954.88
2023-04-26T17:35:59.884Z,101970.97
2023-04-26T17:38:27.672Z,101962.00
2023-04-26T17:40:55.862Z,101967.28
2023-04-26T17:43:23.735Z,101962.22
2023-04-26T17:45:51.699Z,101961.84
2023-04-26T17:48:21.165Z,101967.63
2023-04-26T17:50:49.083Z,101963.09
2023-04-26T17:53:17.094Z,101965.53
2023-04-26T17:55:45.013Z,101956.97
2023-04-26T17:58:12.939Z,101965.56
2023-04-26T18:00:40.832Z,101961.19
2023-04-26T18:03:09.038Z,101967.56
2023-04-26T18:05:38.852Z,101970.34
2023-04-26T18:08:06.900Z,101960.34
2023-04-26T18:10:34.929Z,101967.88
2023-04-26T18:13:02.892Z,101967.31
2023-04-26T18:15:30.783Z,101967.00
2023-04-26T18:17:58.699Z,101969.34
2023-04-26T18:20:27.135Z,101972.50
2023-04-26T18:22:56.649Z,101971.91
2023-04-26T18:25:24.408Z,101973.44
2023-04-26T18:27:52.198Z,101976.97
2023-04-26T18:30:20.356Z,101978.66
2023-04-26T18:32:48.571Z,101978.41
2023-04-26T18:35:19.506Z,101990.22
2023-04-26T18:37:47.379Z,101997.03
2023-04-26T18:40:16.968Z,102012.91
2023-04-26T18:42:45.189Z,102014.22
2023-04-26T18:45:15.404Z,102006.75
2023-04-26T18:47:43.501Z,102007.00
2023-04-26T18:50:11.728Z,102001.47
2023-04-26T18:52:40.006Z,101995.28
2023-04-26T18:55:08.746Z,102000.28
2023-04-26T18:57:37.994Z,102002.75
2023-04-26T19:00:08.283Z,102005.78
2023-04-26T19:02:41.025Z,102006.88
2023-04-26T19:05:10.841Z,102005.72
2023-04-26T19:07:40.057Z,102014.06
2023-04-26T19:10:09.085Z,102006.59
2023-04-26T19:12:39.350Z,102005.34
2023-04-26T19:15:08.670Z,102012.97
2023-04-26T19:17:36.712Z,102013.41
2023-04-26T19:20:10.576Z,102024.31
2023-04-26T19:22:38.997Z,102035.69
2023-04-26T19:25:07.786Z,102033.16
2023-04-26T19:27:35.704Z,102032.28
2023-04-26T19:30:06.452Z,102030.00
2023-04-26T19:32:34.505Z,102028.09
2023-04-26T19:35:02.428Z,102029.88
2023-04-26T19:37:30.209Z,102032.09
2023-04-26T19:39:58.098Z,102024.22
2023-04-26T19:42:25.976Z,102025.91
2023-04-26T19:44:53.823Z,102027.78
2023-04-26T19:47:23.366Z,102028.03
2023-04-26T19:49:53.029Z,102032.94
2023-04-26T19:52:21.032Z,102033.66
2023-04-26T19:54:49.021Z,102034.69
2023-04-26T19:57:17.318Z,102033.19
2023-04-26T19:59:45.068Z,102029.00
2023-04-26T20:02:13.063Z,102031.25
2023-04-26T20:04:42.760Z,102035.66
2023-04-26T20:07:11.309Z,102038.38
2023-04-26T20:09:39.413Z,102036.97
2023-04-26T20:12:07.880Z,102035.03
2023-04-26T20:14:37.746Z,102040.31
2023-04-26T20:17:05.866Z,102031.91
2023-04-26T20:19:33.816Z,102032.75
2023-04-26T20:22:03.178Z,102037.22
2023-04-26T20:24:31.193Z,102026.94
2023-04-26T20:26:59.103Z,102034.56
2023-04-26T20:29:27.138Z,102029.13
2023-04-26T20:31:55.121Z,102037.03
2023-04-26T20:34:23.196Z,102042.97
2023-04-26T20:36:51.193Z,102037.09
2023-04-26T20:39:21.853Z,102047.00
2023-04-26T20:41:49.605Z,102043.56
2023-04-26T20:44:17.411Z,102042.44
2023-04-26T20:46:45.246Z,102043.03
2023-04-26T20:49:13.590Z,102054.03
2023-04-26T20:51:41.422Z,102062.19
2023-04-26T20:54:09.521Z,102058.94
2023-04-26T20:56:41.885Z,102051.81
2023-04-26T20:59:09.966Z,102046.38
2023-04-26T21:01:38.390Z,102046.84
2023-04-26T21:04:06.677Z,102041.69
2023-04-26T21:06:34.704Z,102041.94
2023-04-26T21:09:02.488Z,102036.50
2023-04-26T21:11:30.309Z,102038.34
2023-04-26T21:13:59.451Z,102031.06
2023-04-26T21:16:27.351Z,102042.09
2023-04-26T21:18:55.383Z,102041.22
2023-04-26T21:21:23.206Z,102041.41
2023-04-26T21:23:51.072Z,102043.09
2023-04-26T21:26:18.952Z,102041.34
2023-04-26T21:28:46.886Z,102038.69
2023-04-26T21:31:16.027Z,102032.69
2023-04-26T21:33:44.005Z,102041.06
2023-04-26T21:36:11.930Z,102034.69
2023-04-26T21:38:39.790Z,102035.44
2023-04-26T21:41:07.682Z,102034.81
2023-04-26T21:43:35.542Z,102046.28
2023-04-26T21:46:03.417Z,102043.88
2023-04-26T21:48:32.898Z,102041.16
2023-04-26T21:51:01.020Z,102041.16
2023-04-26T21:53:28.932Z,102042.22
2023-04-26T21:55:57.763Z,102052.97
2023-04-26T21:58:25.622Z,102048.78
2023-04-26T22:00:53.537Z,102046.44
2023-04-26T22:03:22.087Z,102047.78
2023-04-26T22:05:51.419Z,102051.25
2023-04-26T22:08:19.241Z,102048.13
2023-04-26T22:10:47.026Z,102047.38
2023-04-26T22:13:14.774Z,102050.97
2023-04-26T22:15:42.487Z,102050.97
2023-04-26T22:18:10.458Z,102061.78
2023-04-26T22:20:38.323Z,102057.06
2023-04-26T22:23:07.849Z,102057.47
2023-04-26T22:25:35.745Z,102062.94
2023-04-26T22:28:03.774Z,102056.44
2023-04-26T22:30:31.552Z,102057.16
2023-04-26T22:32:59.894Z,102059.63
2023-04-26T22:35:28.897Z,102060.03
2023-04-26T22:37:56.770Z,102062.47
2023-04-26T22:40:26.072Z,102069.03
2023-04-26T22:42:54.452Z,102069.66
2023-04-26T22:45:22.800Z,102075.97
2023-04-26T22:47:51.000Z,102073.25
2023-04-26T22:50:18.885Z,102078.94
2023-04-26T22:52:46.918Z,102079.81
2023-04-26T22:55:14.856Z,102076.47
2023-04-26T22:57:44.087Z,102082.66
2023-04-26T23:00:14.602Z,102074.88
2023-04-26T23:02:42.939Z,102075.50
2023-04-26T23:05:11.346Z,102077.81
2023-04-26T23:07:40.140Z,102074.00
2023-04-26T23:10:09.160Z,102079.28
2023-04-26T23:12:37.209Z,102079.66
2023-04-26T23:15:07.873Z,102080.91
2023-04-26T23:17:35.869Z,102080.41
2023-04-26T23:20:11.759Z,102081.03
2023-04-26T23:22:40.431Z,102083.63
2023-04-26T23:25:09.851Z,102079.91
2023-04-26T23:27:38.148Z,102086.56
2023-04-26T23:30:08.670Z,102095.47
2023-04-26T23:32:36.621Z,102094.88
2023-04-26T23:35:05.510Z,102092.53
2023-04-26T23:37:33.344Z,102095.38
2023-04-26T23:40:01.396Z,102095.34
2023-04-26T23:42:29.185Z,102094.38
2023-04-26T23:44:57.160Z,102094.50
2023-04-26T23:47:26.820Z,102098.94
2023-04-26T23:49:54.729Z,102095.34
2023-04-26T23:52:22.514Z,102095.63
2023-04-26T23:54:50.273Z,102102.66
2023-04-26T23:57:18.103Z,102099.19
2023-04-26T23:59:46.114Z,102106.22
